SAVC/CRD METAR and TAF weather

Enter ICAO airport designator
Station Type Date Time Source
SAVC METAR 2022/05/26 05:00 UTC NOAA

SAVC 260500Z 29006KT 260V330 CAVOK 04/M06 Q1023 RMK PP000


Station Type Date Time Source
SAVC Decoded METAR 2022/05/26 05:00 UTC NOAA

Comodoro Rivadavia Aerodrome, Argentina (SAVC) 45-47S 067-30W 46M
May 26, 2022 - 01:00 AM EDT / 2022.05.26 0500 UTC
Wind: from the WNW (290 degrees) at 7 MPH (6 KT) (direction variable):0
Visibility: greater than 7 mile(s):0
Temperature: 39 F (4 C)
Dew Point: 21 F (-6 C)
Relative Humidity: 48%
Pressure (altimeter): 30.21 in. Hg (1023 hPa)
ob: SAVC 260500Z 29006KT 260V330 CAVOK 04/M06 Q1023 RMK PP000
cycle: 5

Station Type Date Time Source
SAVC TAF 2022/05/26 06:20 UTC NOAA

TAF
AMD SAVC 260520Z 2606/2706 29010KT CAVOK TX11/2619Z TN00/2610Z
BECMG 2618/2620 27020KT

Example: see airport list